createdAt,value
2022-12-01T00:01:32.206Z,79.02
2022-12-01T00:04:00.334Z,79.23
2022-12-01T00:06:28.448Z,79.45
2022-12-01T00:09:19.692Z,79.08
2022-12-01T00:11:49.064Z,78.62
2022-12-01T00:14:17.604Z,79.04
2022-12-01T00:16:47.360Z,79.64
2022-12-01T00:19:15.799Z,79.85
2022-12-01T00:21:43.941Z,79.57
2022-12-01T00:24:12.823Z,79.24
2022-12-01T00:26:41.039Z,78.79
2022-12-01T00:29:09.133Z,78.64
2022-12-01T00:31:37.623Z,78.41
2022-12-01T00:34:11.336Z,78.25
2022-12-01T00:36:40.566Z,78.00
2022-12-01T00:39:11.040Z,78.38
2022-12-01T00:41:38.916Z,77.81
2022-12-01T00:44:07.042Z,78.47
2022-12-01T00:46:35.064Z,78.35
2022-12-01T00:49:03.030Z,78.27
2022-12-01T00:51:32.953Z,78.56
2022-12-01T00:54:00.899Z,78.73
2022-12-01T00:56:28.834Z,78.50
2022-12-01T00:58:56.811Z,78.66
2022-12-01T01:01:24.983Z,77.94
2022-12-01T01:03:53.132Z,78.33
2022-12-01T01:06:21.083Z,78.21
2022-12-01T01:08:50.547Z,78.17
2022-12-01T01:11:18.824Z,77.89
2022-12-01T01:13:46.828Z,78.06
2022-12-01T01:16:16.669Z,76.93
2022-12-01T01:18:44.722Z,77.26
2022-12-01T01:21:16.013Z,77.57
2022-12-01T01:23:44.258Z,78.41
2022-12-01T01:26:16.654Z,77.73
2022-12-01T01:28:45.843Z,77.73
2022-12-01T01:31:16.668Z,78.25
2022-12-01T01:33:45.256Z,78.52
2022-12-01T01:36:14.337Z,78.78
2022-12-01T01:38:42.924Z,79.02
2022-12-01T01:41:11.671Z,78.60
2022-12-01T01:43:43.497Z,78.69
2022-12-01T01:46:12.974Z,78.78
2022-12-01T01:48:43.218Z,78.56
2022-12-01T01:51:14.204Z,78.16
2022-12-01T01:53:43.889Z,77.99
2022-12-01T01:56:12.159Z,78.00
2022-12-01T01:58:42.643Z,78.05
2022-12-01T02:01:10.682Z,77.92
2022-12-01T02:03:41.177Z,77.99
2022-12-01T02:06:10.487Z,78.20
2022-12-01T02:08:38.638Z,78.35
2022-12-01T02:11:24.474Z,77.88
2022-12-01T02:14:05.894Z,77.58
2022-12-01T02:16:42.314Z,77.77
2022-12-01T02:19:31.789Z,77.88
2022-12-01T02:22:09.227Z,78.15
2022-12-01T02:25:07.122Z,77.74
2022-12-01T02:27:55.362Z,77.96
2022-12-01T02:30:35.124Z,77.61
2022-12-01T02:33:08.576Z,77.56
2022-12-01T02:35:46.133Z,77.63
2022-12-01T02:38:23.456Z,78.05
2022-12-01T02:40:58.622Z,77.34
2022-12-01T02:43:33.599Z,77.28
2022-12-01T02:46:09.863Z,77.10
2022-12-01T02:48:41.108Z,77.19
2022-12-01T02:51:13.855Z,76.87
2022-12-01T02:53:42.283Z,77.47
2022-12-01T02:56:16.042Z,77.46
2022-12-01T02:58:44.175Z,77.04
2022-12-01T03:01:30.403Z,76.94
2022-12-01T03:04:10.076Z,76.84
2022-12-01T03:06:49.297Z,76.82
2022-12-01T03:09:27.220Z,76.97
2022-12-01T03:12:06.609Z,76.54
2022-12-01T03:14:41.595Z,77.14
2022-12-01T03:17:17.658Z,77.26
2022-12-01T03:19:49.926Z,76.68
2022-12-01T03:22:24.867Z,77.29
2022-12-01T03:24:56.419Z,76.87
2022-12-01T03:27:30.996Z,76.37
2022-12-01T03:30:02.258Z,76.94
2022-12-01T03:32:38.250Z,76.47
2022-12-01T03:35:10.981Z,76.30
2022-12-01T03:37:44.462Z,75.98
2022-12-01T03:40:17.983Z,76.68
2022-12-01T03:42:49.307Z,76.69
2022-12-01T03:45:19.046Z,76.09
2022-12-01T03:47:48.675Z,76.25
2022-12-01T03:50:18.654Z,76.87
2022-12-01T03:52:53.391Z,75.87
2022-12-01T03:55:25.946Z,76.00
2022-12-01T03:57:57.991Z,75.73
2022-12-01T04:00:26.960Z,76.10
2022-12-01T04:02:58.189Z,76.07
2022-12-01T04:05:27.466Z,76.24
2022-12-01T04:07:55.505Z,75.85
2022-12-01T04:10:23.557Z,75.10
2022-12-01T04:12:50.663Z,75.69
2022-12-01T04:15:18.991Z,75.53
2022-12-01T04:17:46.966Z,75.39
2022-12-01T04:20:17.734Z,74.60
2022-12-01T04:22:45.754Z,74.76
2022-12-01T04:25:13.734Z,75.07
2022-12-01T04:27:41.979Z,75.24
2022-12-01T04:30:11.082Z,75.84
2022-12-01T04:32:40.868Z,75.48
2022-12-01T04:35:10.478Z,75.56
2022-12-01T04:37:40.332Z,75.18
2022-12-01T04:40:09.793Z,74.93
2022-12-01T04:42:37.743Z,75.74
2022-12-01T04:45:06.159Z,74.82
2022-12-01T04:47:34.108Z,75.43
2022-12-01T04:50:02.075Z,75.33
2022-12-01T04:52:35.028Z,74.90
2022-12-01T04:55:05.207Z,74.79
2022-12-01T04:57:33.166Z,74.34
2022-12-01T05:00:01.073Z,74.42
2022-12-01T05:02:29.260Z,74.26
2022-12-01T05:04:57.318Z,74.38
2022-12-01T05:07:25.272Z,74.49
2022-12-01T05:09:55.116Z,74.85
2022-12-01T05:12:24.810Z,74.21
2022-12-01T05:14:52.832Z,74.24
2022-12-01T05:17:20.781Z,73.96
2022-12-01T05:20:06.190Z,74.21
2022-12-01T05:23:03.817Z,74.70
2022-12-01T05:25:22.194Z,74.56
2022-12-01T05:27:51.593Z,74.59
2022-12-01T05:30:22.017Z,74.39
2022-12-01T05:32:52.351Z,74.57
2022-12-01T05:35:20.313Z,73.65
2022-12-01T05:37:48.259Z,73.85
2022-12-01T05:40:16.212Z,73.92
2022-12-01T05:42:44.299Z,74.08
2022-12-01T05:45:13.724Z,74.78
2022-12-01T05:47:41.699Z,74.34
2022-12-01T05:50:10.355Z,74.00
2022-12-01T05:52:38.555Z,73.99
2022-12-01T05:55:07.846Z,74.22
2022-12-01T05:57:35.577Z,75.00
2022-12-01T06:00:04.013Z,74.28
2022-12-01T06:02:40.757Z,74.40
2022-12-01T06:05:09.940Z,74.95
2022-12-01T06:07:40.241Z,74.83
2022-12-01T06:10:10.042Z,73.92
2022-12-01T06:12:38.536Z,74.73
2022-12-01T06:15:08.325Z,74.38
2022-12-01T06:17:40.266Z,75.02
2022-12-01T06:20:12.031Z,74.17
2022-12-01T06:22:40.246Z,74.68
2022-12-01T06:25:09.326Z,74.51
2022-12-01T06:27:37.386Z,74.58
2022-12-01T06:30:06.568Z,74.30
2022-12-01T06:32:34.626Z,74.74
2022-12-01T06:35:02.634Z,74.76
2022-12-01T06:37:32.026Z,75.58
2022-12-01T06:40:00.034Z,74.59
2022-12-01T06:42:30.690Z,74.29
2022-12-01T06:44:58.694Z,74.46
2022-12-01T06:47:26.651Z,74.25
2022-12-01T06:49:54.573Z,74.26
2022-12-01T06:52:22.582Z,74.23
2022-12-01T06:54:51.902Z,73.83
2022-12-01T06:57:20.283Z,74.40
2022-12-01T06:59:49.200Z,74.85
2022-12-01T07:02:17.746Z,81.27
2022-12-01T07:04:45.789Z,73.03
2022-12-01T07:07:13.749Z,72.54
2022-12-01T07:09:41.828Z,72.65
2022-12-01T07:12:11.146Z,73.36
2022-12-01T07:14:38.983Z,72.71
2022-12-01T07:17:06.957Z,72.93
2022-12-01T07:19:34.955Z,72.53
2022-12-01T07:22:03.226Z,71.93
2022-12-01T07:24:31.475Z,72.60
2022-12-01T07:26:59.477Z,72.19
2022-12-01T07:29:28.802Z,72.40
2022-12-01T07:31:56.765Z,71.92
2022-12-01T07:34:24.663Z,72.51
2022-12-01T07:36:52.608Z,72.20
2022-12-01T07:39:20.575Z,71.80
2022-12-01T07:41:48.814Z,71.40
2022-12-01T07:44:16.946Z,71.53
2022-12-01T07:46:46.257Z,72.28
2022-12-01T07:49:15.576Z,71.73
2022-12-01T07:51:43.658Z,71.80
2022-12-01T07:54:14.254Z,70.62
2022-12-01T07:56:42.323Z,70.54
2022-12-01T07:59:10.538Z,70.27
2022-12-01T08:01:44.055Z,70.74
2022-12-01T08:04:14.119Z,70.70
2022-12-01T08:06:42.065Z,70.57
2022-12-01T08:09:10.172Z,69.73
2022-12-01T08:11:38.156Z,69.85
2022-12-01T08:14:06.129Z,69.44
2022-12-01T08:16:34.058Z,69.84
2022-12-01T08:19:02.016Z,69.66
2022-12-01T08:21:31.330Z,69.81
2022-12-01T08:23:59.419Z,69.60
2022-12-01T08:26:27.996Z,68.98
2022-12-01T08:28:56.027Z,68.57
2022-12-01T08:31:26.154Z,69.47
2022-12-01T08:33:57.227Z,69.08
2022-12-01T08:36:25.912Z,68.63
2022-12-01T08:38:56.313Z,69.44
2022-12-01T08:41:25.317Z,69.16
2022-12-01T08:43:58.496Z,68.26
2022-12-01T08:46:27.601Z,68.68
2022-12-01T08:48:57.722Z,68.59
2022-12-01T08:51:26.947Z,69.03
2022-12-01T08:53:58.131Z,68.68
2022-12-01T08:56:28.424Z,68.66
2022-12-01T08:58:57.216Z,69.60
2022-12-01T09:01:26.017Z,68.58
2022-12-01T09:04:05.896Z,69.05
2022-12-01T09:06:35.454Z,69.36
2022-12-01T09:09:05.389Z,69.57
2022-12-01T09:11:33.415Z,69.35
2022-12-01T09:14:10.497Z,69.30
2022-12-01T09:16:38.659Z,68.75
2022-12-01T09:19:06.700Z,68.81
2022-12-01T09:21:37.031Z,68.81
2022-12-01T09:24:07.647Z,69.37
2022-12-01T09:26:35.855Z,69.33
2022-12-01T09:29:06.342Z,69.20
2022-12-01T09:31:34.502Z,68.91
2022-12-01T09:34:03.770Z,68.85
2022-12-01T09:36:32.085Z,69.32
2022-12-01T09:39:00.263Z,70.09
2022-12-01T09:41:33.952Z,69.57
2022-12-01T09:44:10.628Z,70.08
2022-12-01T09:46:45.536Z,68.28
2022-12-01T09:49:20.250Z,67.77
2022-12-01T09:51:48.211Z,68.98
2022-12-01T09:54:16.642Z,68.39
2022-12-01T09:56:49.527Z,68.91
2022-12-01T09:59:23.689Z,68.85
2022-12-01T10:01:56.693Z,68.13
2022-12-01T10:04:29.164Z,68.20
2022-12-01T10:07:02.524Z,68.34
2022-12-01T10:09:36.461Z,68.87
2022-12-01T10:12:14.812Z,68.84
2022-12-01T10:14:45.157Z,69.69
2022-12-01T10:17:22.814Z,69.34
2022-12-01T10:19:57.540Z,69.04
2022-12-01T10:22:53.494Z,68.60
2022-12-01T10:25:24.019Z,69.97
2022-12-01T10:28:08.604Z,70.89
2022-12-01T10:30:40.577Z,70.31
2022-12-01T10:33:18.866Z,70.62
2022-12-01T10:35:47.070Z,70.26
2022-12-01T10:38:23.735Z,70.37
2022-12-01T10:40:53.456Z,70.70
2022-12-01T10:43:30.904Z,71.12
2022-12-01T10:46:01.395Z,71.74
2022-12-01T10:48:29.451Z,72.09
2022-12-01T10:51:04.810Z,72.65
2022-12-01T10:53:36.555Z,73.39
2022-12-01T10:56:09.978Z,73.67
2022-12-01T10:58:47.886Z,75.16
2022-12-01T11:01:25.929Z,73.95
2022-12-01T11:04:03.141Z,73.89
2022-12-01T11:06:32.641Z,76.13
2022-12-01T11:09:02.840Z,76.52
2022-12-01T11:11:37.767Z,76.97
2022-12-01T11:14:18.231Z,77.55
2022-12-01T11:16:47.866Z,78.86
2022-12-01T11:19:38.767Z,77.42
2022-12-01T11:22:26.706Z,77.44
2022-12-01T11:25:07.989Z,78.57
2022-12-01T11:27:57.581Z,79.64
2022-12-01T11:30:34.500Z,79.28
2022-12-01T11:33:18.612Z,79.03
2022-12-01T11:36:00.868Z,77.54
2022-12-01T11:38:34.698Z,79.18
2022-12-01T11:41:35.132Z,77.92
2022-12-01T11:44:22.526Z,77.79
2022-12-01T11:47:21.517Z,77.83
2022-12-01T11:49:57.326Z,77.61
2022-12-01T11:52:36.361Z,78.18
2022-12-01T11:55:22.917Z,78.60
2022-12-01T11:57:53.166Z,79.48
2022-12-01T12:00:23.797Z,79.49
2022-12-01T12:03:26.610Z,79.34
2022-12-01T12:06:38.872Z,80.29
2022-12-01T12:09:15.532Z,78.57
2022-12-01T12:11:51.186Z,78.66
2022-12-01T12:14:32.696Z,79.58
2022-12-01T12:17:16.695Z,78.23
2022-12-01T12:20:21.995Z,79.42
2022-12-01T12:23:02.112Z,79.24
2022-12-01T12:25:42.770Z,78.93
2022-12-01T12:28:25.268Z,79.24
2022-12-01T12:31:02.231Z,78.83
2022-12-01T12:33:44.019Z,76.93
2022-12-01T12:36:22.736Z,78.21
2022-12-01T12:39:03.738Z,78.53
2022-12-01T12:41:37.520Z,78.66
2022-12-01T12:44:30.021Z,77.47
2022-12-01T12:47:11.463Z,78.65
2022-12-01T12:49:47.227Z,79.09
2022-12-01T12:52:19.805Z,78.01
2022-12-01T12:54:53.512Z,78.24
2022-12-01T12:57:28.964Z,79.02
2022-12-01T13:00:02.152Z,78.08
2022-12-01T13:02:39.312Z,78.26
2022-12-01T13:05:11.496Z,78.51
2022-12-01T13:07:45.986Z,78.13
2022-12-01T13:10:23.228Z,79.09
2022-12-01T13:12:58.827Z,77.01
2022-12-01T13:15:28.574Z,76.07
2022-12-01T13:18:02.305Z,75.75
2022-12-01T13:20:32.346Z,76.34
2022-12-01T13:23:03.195Z,76.88
2022-12-01T13:25:34.212Z,77.53
2022-12-01T13:28:05.427Z,77.10
2022-12-01T13:30:33.474Z,76.90
2022-12-01T13:33:03.660Z,77.68
2022-12-01T13:35:34.299Z,78.56
2022-12-01T13:38:26.117Z,78.62
2022-12-01T13:41:12.539Z,78.81
2022-12-01T13:43:53.330Z,79.50
2022-12-01T13:46:27.229Z,79.96
2022-12-01T13:48:57.797Z,78.33
2022-12-01T13:51:26.324Z,77.93
2022-12-01T13:54:03.000Z,77.79
2022-12-01T13:56:47.732Z,76.98
2022-12-01T13:59:41.908Z,77.42
2022-12-01T14:02:21.740Z,77.44
2022-12-01T14:04:50.174Z,76.71
2022-12-01T14:07:36.920Z,77.63
2022-12-01T14:10:32.547Z,76.52
2022-12-01T14:13:05.025Z,76.55
2022-12-01T14:15:40.276Z,76.21
2022-12-01T14:18:22.183Z,76.32
2022-12-01T14:20:50.666Z,76.31
2022-12-01T14:23:25.285Z,76.09
2022-12-01T14:26:11.633Z,78.25
2022-12-01T14:29:25.471Z,77.65
2022-12-01T14:32:21.743Z,77.52
2022-12-01T14:35:06.722Z,78.79
2022-12-01T14:37:43.654Z,77.33
2022-12-01T14:40:22.147Z,76.84
2022-12-01T14:43:12.713Z,77.74
2022-12-01T14:45:47.242Z,77.48
2022-12-01T14:48:18.224Z,77.04
2022-12-01T14:50:50.455Z,76.17
2022-12-01T14:53:28.326Z,75.79
2022-12-01T14:55:58.355Z,75.86
2022-12-01T14:58:29.946Z,76.25
2022-12-01T15:01:03.439Z,75.61
2022-12-01T15:03:36.651Z,75.95
2022-12-01T15:06:05.109Z,76.16
2022-12-01T15:09:10.724Z,75.57
2022-12-01T15:11:25.593Z,75.85
2022-12-01T15:13:56.984Z,76.14
2022-12-01T15:16:26.948Z,76.41
2022-12-01T15:18:55.033Z,75.19
2022-12-01T15:21:25.632Z,75.16
2022-12-01T15:23:55.282Z,75.27
2022-12-01T15:26:25.384Z,75.70
2022-12-01T15:29:08.090Z,75.67
2022-12-01T15:31:36.628Z,76.17
2022-12-01T15:34:05.164Z,77.13
2022-12-01T15:36:33.231Z,76.53
2022-12-01T15:39:06.881Z,77.63
2022-12-01T15:41:40.138Z,76.41
2022-12-01T15:44:21.024Z,77.12
2022-12-01T15:46:49.449Z,77.44
2022-12-01T15:49:20.615Z,77.48
2022-12-01T15:51:50.681Z,76.86
2022-12-01T15:54:22.317Z,77.63
2022-12-01T15:56:54.942Z,77.80
2022-12-01T15:59:32.139Z,77.54
2022-12-01T16:02:01.281Z,77.02
2022-12-01T16:04:32.353Z,77.11
2022-12-01T16:07:02.710Z,77.04
2022-12-01T16:09:35.468Z,77.23
2022-12-01T16:12:20.316Z,77.37
2022-12-01T16:14:58.000Z,77.29
2022-12-01T16:17:27.639Z,78.08
2022-12-01T16:20:25.108Z,77.11
2022-12-01T16:22:59.006Z,77.33
2022-12-01T16:25:39.289Z,76.34
2022-12-01T16:28:08.729Z,76.67
2022-12-01T16:30:39.904Z,75.88
2022-12-01T16:33:16.203Z,75.46
2022-12-01T16:35:44.622Z,75.37
2022-12-01T16:38:16.270Z,74.18
2022-12-01T16:40:44.589Z,74.57
2022-12-01T16:43:15.958Z,74.02
2022-12-01T16:45:46.932Z,74.38
2022-12-01T16:48:19.336Z,73.91
2022-12-01T16:50:48.379Z,73.09
2022-12-01T16:53:16.403Z,73.13
2022-12-01T16:55:48.516Z,73.49
2022-12-01T16:58:16.646Z,73.33
2022-12-01T17:00:52.383Z,72.96
2022-12-01T17:03:22.033Z,72.36
2022-12-01T17:05:50.746Z,72.34
2022-12-01T17:08:19.539Z,72.37
2022-12-01T17:10:50.323Z,72.78
2022-12-01T17:13:19.861Z,72.76
2022-12-01T17:15:51.628Z,73.26
2022-12-01T17:18:21.313Z,72.71
2022-12-01T17:20:58.297Z,73.04
2022-12-01T17:23:26.667Z,73.49
2022-12-01T17:25:54.824Z,73.72
2022-12-01T17:28:23.277Z,74.00
2022-12-01T17:30:52.856Z,73.78
2022-12-01T17:33:20.894Z,74.35
2022-12-01T17:35:49.908Z,74.60
2022-12-01T17:38:17.890Z,75.64
2022-12-01T17:40:45.816Z,75.31
2022-12-01T17:43:13.967Z,75.94
2022-12-01T17:45:43.847Z,76.09
2022-12-01T17:48:13.177Z,76.05
2022-12-01T17:50:40.958Z,75.55
2022-12-01T17:53:08.973Z,75.50
2022-12-01T17:55:40.220Z,75.94
2022-12-01T17:58:08.248Z,76.42
2022-12-01T18:00:36.257Z,76.16
2022-12-01T18:03:04.477Z,76.62
2022-12-01T18:05:34.018Z,76.17
2022-12-01T18:08:02.171Z,76.75
2022-12-01T18:10:30.177Z,76.24
2022-12-01T18:12:58.153Z,76.66
2022-12-01T18:15:31.813Z,76.86
2022-12-01T18:18:02.571Z,77.28
2022-12-01T18:20:30.602Z,77.69
2022-12-01T18:22:59.937Z,77.26
2022-12-01T18:25:27.671Z,77.08
2022-12-01T18:27:58.687Z,76.96
2022-12-01T18:30:26.707Z,77.51
2022-12-01T18:32:54.648Z,77.11
2022-12-01T18:35:25.283Z,77.89
2022-12-01T18:37:56.834Z,77.65
2022-12-01T18:40:28.846Z,77.61
2022-12-01T18:42:56.569Z,77.58
2022-12-01T18:45:24.540Z,77.88
2022-12-01T18:47:52.753Z,77.71
2022-12-01T18:50:20.735Z,78.01
2022-12-01T18:52:48.730Z,78.18
2022-12-01T18:55:16.740Z,78.28
2022-12-01T18:57:46.084Z,78.50
2022-12-01T19:00:14.502Z,78.42
2022-12-01T19:02:42.645Z,79.22
2022-12-01T19:05:11.098Z,78.87
2022-12-01T19:07:39.118Z,78.94
2022-12-01T19:10:08.195Z,78.95
2022-12-01T19:12:40.764Z,78.97
2022-12-01T19:15:11.876Z,79.12
2022-12-01T19:17:40.083Z,78.95
2022-12-01T19:20:09.372Z,79.52
2022-12-01T19:22:37.743Z,79.31
2022-12-01T19:25:06.583Z,78.99
2022-12-01T19:27:35.517Z,78.64
2022-12-01T19:30:03.432Z,78.66
2022-12-01T19:32:33.579Z,78.76
2022-12-01T19:35:01.607Z,78.72
2022-12-01T19:37:30.849Z,78.46
2022-12-01T19:39:58.826Z,79.21
2022-12-01T19:42:26.775Z,78.92
2022-12-01T19:44:55.806Z,78.78
2022-12-01T19:47:23.875Z,78.61
2022-12-01T19:49:53.204Z,78.15
2022-12-01T19:52:20.953Z,78.66
2022-12-01T19:54:49.158Z,79.01
2022-12-01T19:57:17.466Z,79.07
2022-12-01T19:59:45.445Z,79.16
2022-12-01T20:02:13.693Z,79.10
2022-12-01T20:04:41.636Z,78.68
2022-12-01T20:07:10.991Z,79.77
2022-12-01T20:09:38.913Z,78.95
2022-12-01T20:12:07.284Z,79.29
2022-12-01T20:14:35.190Z,79.44
2022-12-01T20:17:03.305Z,80.06
2022-12-01T20:19:31.424Z,79.61
2022-12-01T20:21:59.474Z,79.94
2022-12-01T20:24:28.882Z,79.47
2022-12-01T20:26:57.639Z,78.87
2022-12-01T20:29:27.521Z,78.69
2022-12-01T20:31:57.175Z,78.43
2022-12-01T20:34:27.863Z,78.09
2022-12-01T20:36:57.202Z,78.69
2022-12-01T20:39:24.999Z,78.90
2022-12-01T20:41:54.473Z,78.77
2022-12-01T20:44:22.655Z,78.71
2022-12-01T20:46:50.651Z,78.35
2022-12-01T20:49:19.914Z,78.15
2022-12-01T20:51:48.418Z,78.21
2022-12-01T20:54:33.224Z,77.89
2022-12-01T20:57:02.632Z,77.83
2022-12-01T20:59:31.826Z,77.99
2022-12-01T21:01:59.897Z,78.17
2022-12-01T21:04:27.926Z,78.01
2022-12-01T21:06:56.949Z,77.62
2022-12-01T21:09:25.165Z,77.78
2022-12-01T21:12:10.707Z,77.72
2022-12-01T21:14:43.748Z,76.94
2022-12-01T21:17:23.022Z,77.18
2022-12-01T21:19:53.309Z,76.69
2022-12-01T21:22:21.329Z,77.38
2022-12-01T21:24:51.987Z,77.11
2022-12-01T21:27:20.105Z,76.78
2022-12-01T21:29:51.011Z,77.11
2022-12-01T21:32:20.838Z,77.02
2022-12-01T21:34:49.717Z,77.20
2022-12-01T21:37:23.255Z,77.16
2022-12-01T21:39:53.136Z,76.82
2022-12-01T21:42:23.036Z,76.76
2022-12-01T21:44:52.677Z,76.85
2022-12-01T21:47:23.275Z,77.03
2022-12-01T21:49:54.018Z,76.71
2022-12-01T21:52:25.048Z,76.39
2022-12-01T21:54:53.227Z,76.50
2022-12-01T21:57:42.364Z,76.48
2022-12-01T22:00:30.390Z,76.11
2022-12-01T22:03:18.095Z,75.93
2022-12-01T22:06:07.213Z,76.66
2022-12-01T22:08:39.286Z,76.47
2022-12-01T22:11:13.886Z,76.87
2022-12-01T22:13:44.136Z,76.55
2022-12-01T22:16:20.619Z,76.72
2022-12-01T22:18:52.150Z,76.86
2022-12-01T22:21:45.420Z,76.72
2022-12-01T22:24:22.938Z,76.95
2022-12-01T22:26:54.139Z,76.17
2022-12-01T22:29:28.519Z,76.65
2022-12-01T22:32:25.777Z,76.07
2022-12-01T22:34:57.497Z,76.30
2022-12-01T22:37:35.344Z,76.84
2022-12-01T22:40:23.552Z,76.24
2022-12-01T22:42:51.564Z,76.33
2022-12-01T22:45:24.023Z,76.25
2022-12-01T22:48:01.824Z,76.74
2022-12-01T22:50:32.182Z,76.77
2022-12-01T22:53:02.996Z,76.72
2022-12-01T22:55:31.084Z,76.79
2022-12-01T22:57:59.216Z,76.47
2022-12-01T23:00:27.757Z,76.22
2022-12-01T23:02:57.453Z,76.46
2022-12-01T23:05:27.762Z,75.83
2022-12-01T23:07:57.128Z,76.46
2022-12-01T23:10:27.064Z,76.10
2022-12-01T23:12:56.326Z,76.54
2022-12-01T23:15:31.415Z,76.25
2022-12-01T23:18:10.653Z,76.88
2022-12-01T23:20:40.059Z,76.86
2022-12-01T23:23:11.836Z,76.64
2022-12-01T23:25:41.995Z,76.72
2022-12-01T23:28:11.215Z,76.75
2022-12-01T23:30:40.566Z,76.16
2022-12-01T23:33:15.477Z,76.33
2022-12-01T23:35:48.578Z,76.58
2022-12-01T23:38:19.678Z,76.56
2022-12-01T23:40:48.728Z,76.26
2022-12-01T23:43:22.313Z,75.95
2022-12-01T23:45:53.427Z,76.02
2022-12-01T23:48:24.356Z,76.30
2022-12-01T23:50:55.093Z,76.45
2022-12-01T23:53:27.986Z,76.36
2022-12-01T23:55:57.477Z,75.99
2022-12-01T23:58:38.539Z,76.28
